createdAt,value
2023-12-11T00:00:54.000Z,63.25
2023-12-11T00:01:57.040Z,63.72
2023-12-11T00:02:59.905Z,63.60
2023-12-11T00:04:02.876Z,62.80
2023-12-11T00:05:05.855Z,63.05
2023-12-11T00:06:09.484Z,62.91
2023-12-11T00:07:12.888Z,63.13
2023-12-11T00:08:15.802Z,64.03
2023-12-11T00:09:17.826Z,63.44
2023-12-11T00:10:20.716Z,63.45
2023-12-11T00:11:22.661Z,63.50
2023-12-11T00:12:25.580Z,64.22
2023-12-11T00:13:27.581Z,64.05
2023-12-11T00:14:30.498Z,63.76
2023-12-11T00:15:32.434Z,64.00
2023-12-11T00:16:35.409Z,64.19
2023-12-11T00:17:37.676Z,64.05
2023-12-11T00:18:39.898Z,63.89
2023-12-11T00:19:43.239Z,65.09
2023-12-11T00:20:45.284Z,64.84
2023-12-11T00:21:48.260Z,65.05
2023-12-11T00:22:51.897Z,64.86
2023-12-11T00:23:55.588Z,64.99
2023-12-11T00:24:57.548Z,65.25
2023-12-11T00:25:59.595Z,65.29
2023-12-11T00:27:02.549Z,65.29
2023-12-11T00:28:04.924Z,65.51
2023-12-11T00:29:07.931Z,65.53
2023-12-11T00:30:10.540Z,66.20
2023-12-11T00:31:13.891Z,65.87
2023-12-11T00:32:15.851Z,65.31
2023-12-11T00:33:18.930Z,66.61
2023-12-11T00:34:21.043Z,65.50
2023-12-11T00:35:24.121Z,66.12
2023-12-11T00:36:26.365Z,66.32
2023-12-11T00:37:29.524Z,66.40
2023-12-11T00:38:32.948Z,66.94
2023-12-11T00:39:35.945Z,66.58
2023-12-11T00:40:37.882Z,66.09
2023-12-11T00:41:40.812Z,66.08
2023-12-11T00:42:44.424Z,65.96
2023-12-11T00:43:47.426Z,66.38
2023-12-11T00:44:49.450Z,67.17
2023-12-11T00:45:52.440Z,67.47
2023-12-11T00:46:54.440Z,67.67
2023-12-11T00:47:57.436Z,67.91
2023-12-11T00:48:59.494Z,67.02
2023-12-11T00:50:05.368Z,66.92
2023-12-11T00:51:15.776Z,67.29
2023-12-11T00:52:18.905Z,67.88
2023-12-11T00:53:20.895Z,67.93
2023-12-11T00:54:25.362Z,67.77
2023-12-11T00:55:27.316Z,67.40
2023-12-11T00:56:30.398Z,67.55
2023-12-11T00:57:32.600Z,67.64
2023-12-11T00:58:35.734Z,67.05
2023-12-11T00:59:37.764Z,66.93
2023-12-11T01:00:40.782Z,66.46
2023-12-11T01:01:43.252Z,66.94
2023-12-11T01:02:46.370Z,67.07
2023-12-11T01:03:48.578Z,66.72
2023-12-11T01:04:51.711Z,67.46
2023-12-11T01:05:53.741Z,66.64
2023-12-11T01:06:56.718Z,67.57
2023-12-11T01:07:58.734Z,67.32
2023-12-11T01:09:01.679Z,67.06
2023-12-11T01:10:05.719Z,67.08
2023-12-11T01:11:09.905Z,66.47
2023-12-11T01:12:11.968Z,66.72
2023-12-11T01:13:14.940Z,66.86
2023-12-11T01:14:16.885Z,66.87
2023-12-11T01:15:19.871Z,66.60
2023-12-11T01:16:21.933Z,66.72
2023-12-11T01:17:38.119Z,66.87
2023-12-11T01:18:43.149Z,67.03
2023-12-11T01:19:46.169Z,67.49
2023-12-11T01:20:48.182Z,67.44
2023-12-11T01:21:51.171Z,67.15
2023-12-11T01:22:53.780Z,67.46
2023-12-11T01:23:58.158Z,68.11
2023-12-11T01:25:03.629Z,68.24
2023-12-11T01:26:08.324Z,68.68
2023-12-11T01:27:10.489Z,68.65
2023-12-11T01:28:13.537Z,69.02
2023-12-11T01:29:15.475Z,68.47
2023-12-11T01:30:18.497Z,69.20
2023-12-11T01:31:20.459Z,69.51
2023-12-11T01:32:22.351Z,68.91
2023-12-11T01:33:25.384Z,69.73
2023-12-11T01:34:27.473Z,68.97
2023-12-11T01:35:29.695Z,69.01
2023-12-11T01:36:32.684Z,68.43
2023-12-11T01:37:34.590Z,69.33
2023-12-11T01:38:37.549Z,68.61
2023-12-11T01:39:39.598Z,69.10
2023-12-11T01:40:42.516Z,69.55
2023-12-11T01:41:45.925Z,69.79
2023-12-11T01:42:48.885Z,68.83
2023-12-11T01:43:53.865Z,69.19
2023-12-11T01:44:56.743Z,68.70
2023-12-11T01:46:04.479Z,69.46
2023-12-11T01:47:07.964Z,68.91
2023-12-11T01:48:10.803Z,68.40
2023-12-11T01:49:14.738Z,68.90
2023-12-11T01:50:16.788Z,68.89
2023-12-11T01:51:20.325Z,69.01
2023-12-11T01:52:23.340Z,69.02
2023-12-11T01:53:27.302Z,69.33
2023-12-11T01:54:29.375Z,69.27
2023-12-11T01:55:33.927Z,68.93
2023-12-11T01:56:36.946Z,68.71
2023-12-11T01:57:41.235Z,69.10
2023-12-11T01:58:43.589Z,69.63
2023-12-11T01:59:49.370Z,68.98
2023-12-11T02:00:51.942Z,69.42
2023-12-11T02:01:56.110Z,68.17
2023-12-11T02:02:58.168Z,68.97
2023-12-11T02:04:01.229Z,69.14
2023-12-11T02:05:03.526Z,68.79
2023-12-11T02:06:06.868Z,69.19
2023-12-11T02:07:08.869Z,69.51
2023-12-11T02:08:11.382Z,69.36
2023-12-11T02:09:14.909Z,69.83
2023-12-11T02:10:17.184Z,68.74
2023-12-11T02:11:21.476Z,69.07
2023-12-11T02:12:23.545Z,69.09
2023-12-11T02:13:27.934Z,68.90
2023-12-11T02:14:29.922Z,68.48
2023-12-11T02:15:39.843Z,69.34
2023-12-11T02:16:41.918Z,69.24
2023-12-11T02:17:45.008Z,69.26
2023-12-11T02:18:47.197Z,69.13
2023-12-11T02:19:50.258Z,68.76
2023-12-11T02:20:52.256Z,69.21
2023-12-11T02:21:56.009Z,69.27
2023-12-11T02:23:01.627Z,69.72
2023-12-11T02:24:10.629Z,69.60
2023-12-11T02:25:13.253Z,70.05
2023-12-11T02:26:17.972Z,69.34
2023-12-11T02:27:21.644Z,69.65
2023-12-11T02:28:23.582Z,69.90
2023-12-11T02:29:25.786Z,69.90
2023-12-11T02:30:30.438Z,69.22
2023-12-11T02:31:32.567Z,69.23
2023-12-11T02:32:35.523Z,69.87
2023-12-11T02:33:37.978Z,69.78
2023-12-11T02:34:41.015Z,69.59
2023-12-11T02:35:44.948Z,70.01
2023-12-11T02:36:49.232Z,70.26
2023-12-11T02:37:51.219Z,70.25
2023-12-11T02:38:54.318Z,70.20
2023-12-11T02:39:56.387Z,69.86
2023-12-11T02:40:58.432Z,69.61
2023-12-11T02:42:02.722Z,69.41
2023-12-11T02:43:04.994Z,69.86
2023-12-11T02:44:07.948Z,69.57
2023-12-11T02:45:10.648Z,68.94
2023-12-11T02:46:13.596Z,69.72
2023-12-11T02:47:15.567Z,69.37
2023-12-11T02:48:17.749Z,69.79
2023-12-11T02:49:20.906Z,70.13
2023-12-11T02:50:23.036Z,69.76
2023-12-11T02:51:26.066Z,69.81
2023-12-11T02:52:28.146Z,70.44
2023-12-11T02:53:31.063Z,70.50
2023-12-11T02:54:33.151Z,70.35
2023-12-11T02:55:35.118Z,69.91
2023-12-11T02:56:40.348Z,70.42
2023-12-11T02:57:43.758Z,70.34
2023-12-11T02:58:46.708Z,69.95
2023-12-11T02:59:48.660Z,70.00
2023-12-11T03:00:50.743Z,71.05
2023-12-11T03:01:53.784Z,71.40
2023-12-11T03:02:56.497Z,71.25
2023-12-11T03:03:59.540Z,71.01
2023-12-11T03:05:01.564Z,71.12
2023-12-11T03:06:05.286Z,70.57
2023-12-11T03:07:08.326Z,71.15
2023-12-11T03:08:10.438Z,71.48
2023-12-11T03:09:13.372Z,71.31
2023-12-11T03:10:15.624Z,70.46
2023-12-11T03:11:18.607Z,70.83
2023-12-11T03:12:20.564Z,71.19
2023-12-11T03:13:24.857Z,70.85
2023-12-11T03:14:26.793Z,70.92
2023-12-11T03:15:28.807Z,70.94
2023-12-11T03:16:31.895Z,70.90
2023-12-11T03:17:34.116Z,71.78
2023-12-11T03:18:37.131Z,71.48
2023-12-11T03:19:39.327Z,71.68
2023-12-11T03:20:41.457Z,71.73
2023-12-11T03:21:44.974Z,71.73
2023-12-11T03:22:46.879Z,71.90
2023-12-11T03:23:49.768Z,71.57
2023-12-11T03:24:51.991Z,71.65
2023-12-11T03:25:55.012Z,72.11
2023-12-11T03:26:56.953Z,72.20
2023-12-11T03:28:00.050Z,72.43
2023-12-11T03:29:04.000Z,72.26
2023-12-11T03:30:08.357Z,71.57
2023-12-11T03:31:10.384Z,72.24
2023-12-11T03:32:13.500Z,72.22
2023-12-11T03:33:15.510Z,72.35
2023-12-11T03:34:18.705Z,71.83
2023-12-11T03:35:20.716Z,72.49
2023-12-11T03:36:26.549Z,72.11
2023-12-11T03:37:28.879Z,71.53
2023-12-11T03:38:31.934Z,71.92
2023-12-11T03:39:33.909Z,72.45
2023-12-11T03:40:36.802Z,71.77
2023-12-11T03:41:39.510Z,71.60
2023-12-11T03:42:43.397Z,71.90
2023-12-11T03:43:46.186Z,72.44
2023-12-11T03:44:50.691Z,71.77
2023-12-11T03:45:54.989Z,71.49
2023-12-11T03:46:59.009Z,71.56
2023-12-11T03:48:00.984Z,71.33
2023-12-11T03:49:04.808Z,72.63
2023-12-11T03:50:07.875Z,72.89
2023-12-11T03:51:10.769Z,72.51
2023-12-11T03:52:12.850Z,72.87
2023-12-11T03:53:15.870Z,72.16
2023-12-11T03:54:17.840Z,72.78
2023-12-11T03:55:20.950Z,72.57
2023-12-11T03:56:22.895Z,72.63
2023-12-11T03:57:25.864Z,72.71
2023-12-11T03:58:27.820Z,71.85
2023-12-11T03:59:30.720Z,72.05
2023-12-11T04:00:34.112Z,72.25
2023-12-11T04:01:37.211Z,71.83
2023-12-11T04:02:39.209Z,71.63
2023-12-11T04:03:42.267Z,72.05
2023-12-11T04:04:44.339Z,72.40
2023-12-11T04:05:47.921Z,72.33
2023-12-11T04:06:49.930Z,71.98
2023-12-11T04:07:52.864Z,72.63
2023-12-11T04:08:54.867Z,72.77
2023-12-11T04:09:56.797Z,72.62
2023-12-11T04:10:59.759Z,72.54
2023-12-11T04:12:01.755Z,72.23
2023-12-11T04:13:04.870Z,71.45
2023-12-11T04:14:06.806Z,71.34
2023-12-11T04:15:10.318Z,72.21
2023-12-11T04:16:14.064Z,71.95
2023-12-11T04:17:17.162Z,72.22
2023-12-11T04:18:19.191Z,72.42
2023-12-11T04:19:22.245Z,72.38
2023-12-11T04:20:24.240Z,72.46
2023-12-11T04:21:26.229Z,72.67
2023-12-11T04:22:29.282Z,72.01
2023-12-11T04:23:31.199Z,73.06
2023-12-11T04:24:34.222Z,72.38
2023-12-11T04:25:36.207Z,72.48
2023-12-11T04:26:39.103Z,72.83
2023-12-11T04:27:41.013Z,72.25
2023-12-11T04:28:43.990Z,73.11
2023-12-11T04:29:45.892Z,73.10
2023-12-11T04:30:48.873Z,72.38
2023-12-11T04:31:52.180Z,73.01
2023-12-11T04:32:55.172Z,72.90
2023-12-11T04:33:57.298Z,72.90
2023-12-11T04:35:00.267Z,72.96
2023-12-11T04:36:02.160Z,72.86
2023-12-11T04:37:05.471Z,72.79
2023-12-11T04:38:07.443Z,72.92
2023-12-11T04:39:10.339Z,72.19
2023-12-11T04:40:12.955Z,72.97
2023-12-11T04:41:15.950Z,72.67
2023-12-11T04:42:17.842Z,71.99
2023-12-11T04:43:20.774Z,72.14
2023-12-11T04:44:23.307Z,72.40
2023-12-11T04:45:26.270Z,72.58
2023-12-11T04:46:28.267Z,72.15
2023-12-11T04:47:32.756Z,73.06
2023-12-11T04:48:35.008Z,73.03
2023-12-11T04:49:38.087Z,71.80
2023-12-11T04:50:40.096Z,72.24
2023-12-11T04:51:42.053Z,71.74
2023-12-11T04:52:45.016Z,72.06
2023-12-11T04:53:46.932Z,72.67
2023-12-11T04:54:49.994Z,71.82
2023-12-11T04:55:52.064Z,71.83
2023-12-11T04:56:55.091Z,72.61
2023-12-11T04:57:57.047Z,71.87
2023-12-11T04:59:00.025Z,72.15
2023-12-11T05:00:01.997Z,72.52
2023-12-11T05:01:05.357Z,71.76
2023-12-11T05:02:07.412Z,72.03
2023-12-11T05:03:11.780Z,72.62
2023-12-11T05:04:13.801Z,71.83
2023-12-11T05:05:17.586Z,71.38
2023-12-11T05:06:19.758Z,72.05
2023-12-11T05:07:22.698Z,71.57
2023-12-11T05:08:27.381Z,72.38
2023-12-11T05:09:32.263Z,71.73
2023-12-11T05:10:34.948Z,72.40
2023-12-11T05:11:36.957Z,72.01
2023-12-11T05:12:39.927Z,72.16
2023-12-11T05:13:41.918Z,71.28
2023-12-11T05:14:44.963Z,71.61
2023-12-11T05:15:46.947Z,71.27
2023-12-11T05:16:49.920Z,71.02
2023-12-11T05:17:51.883Z,71.10
2023-12-11T05:18:56.324Z,71.09
2023-12-11T05:19:58.483Z,71.35
2023-12-11T05:21:07.605Z,71.85
2023-12-11T05:22:09.626Z,71.14
2023-12-11T05:23:12.639Z,71.44
2023-12-11T05:24:15.501Z,71.22
2023-12-11T05:25:18.542Z,71.76
2023-12-11T05:26:20.858Z,71.07
2023-12-11T05:27:23.052Z,71.12
2023-12-11T05:28:25.997Z,71.78
2023-12-11T05:29:28.841Z,71.93
2023-12-11T05:30:32.176Z,72.03
2023-12-11T05:31:34.473Z,71.50
2023-12-11T05:32:38.224Z,71.97
2023-12-11T05:33:40.463Z,71.17
2023-12-11T05:34:44.966Z,71.37
2023-12-11T05:35:46.969Z,71.96
2023-12-11T05:36:49.922Z,71.56
2023-12-11T05:37:52.117Z,71.72
2023-12-11T05:38:55.668Z,71.88
2023-12-11T05:40:19.723Z,71.62
2023-12-11T05:41:20.704Z,70.65
2023-12-11T05:42:22.592Z,70.79
2023-12-11T05:43:25.532Z,71.86
2023-12-11T05:44:27.452Z,70.94
2023-12-11T05:45:30.342Z,71.64
2023-12-11T05:46:32.285Z,71.36
2023-12-11T05:47:35.195Z,71.71
2023-12-11T05:48:37.410Z,71.49
2023-12-11T05:49:40.667Z,71.24
2023-12-11T05:50:44.038Z,70.98
2023-12-11T05:51:47.035Z,70.66
2023-12-11T05:52:48.965Z,71.51
2023-12-11T05:53:51.935Z,71.22
2023-12-11T05:54:53.857Z,71.29
2023-12-11T05:55:56.837Z,71.51
2023-12-11T05:56:58.734Z,70.88
2023-12-11T05:58:01.729Z,71.66
2023-12-11T05:59:03.810Z,70.92
2023-12-11T06:00:08.035Z,71.83
2023-12-11T06:01:10.077Z,71.87
2023-12-11T06:02:13.036Z,71.93
2023-12-11T06:03:15.032Z,72.07
2023-12-11T06:04:18.192Z,71.08
2023-12-11T06:05:20.213Z,71.70
2023-12-11T06:06:24.588Z,71.24
2023-12-11T06:07:26.526Z,70.92
2023-12-11T06:08:29.557Z,72.06
2023-12-11T06:09:32.924Z,71.98
2023-12-11T06:10:35.934Z,72.00
2023-12-11T06:11:37.889Z,71.82
2023-12-11T06:12:40.844Z,72.00
2023-12-11T06:13:42.770Z,72.12
2023-12-11T06:14:48.458Z,72.02
2023-12-11T06:15:51.520Z,70.88
2023-12-11T06:16:54.558Z,71.96
2023-12-11T06:17:56.844Z,70.85
2023-12-11T06:19:00.024Z,71.15
2023-12-11T06:20:02.279Z,71.85
2023-12-11T06:21:05.757Z,71.75
2023-12-11T06:22:09.099Z,71.98
2023-12-11T06:23:11.049Z,70.81
2023-12-11T06:24:13.959Z,71.42
2023-12-11T06:25:16.292Z,70.83
2023-12-11T06:26:32.875Z,71.77
2023-12-11T06:27:34.821Z,71.34
2023-12-11T06:28:37.780Z,70.99
2023-12-11T06:29:40.943Z,70.80
2023-12-11T06:30:44.727Z,70.66
2023-12-11T06:31:46.745Z,71.41
2023-12-11T06:32:49.684Z,71.17
2023-12-11T06:33:51.804Z,71.52
2023-12-11T06:34:55.206Z,71.06
2023-12-11T06:35:57.215Z,70.91
2023-12-11T06:37:00.249Z,70.66
2023-12-11T06:38:04.022Z,71.15
2023-12-11T06:39:06.913Z,71.05
2023-12-11T06:40:10.402Z,71.29
2023-12-11T06:41:13.400Z,70.73
2023-12-11T06:42:15.609Z,70.54
2023-12-11T06:43:18.500Z,70.95
2023-12-11T06:44:20.482Z,70.92
2023-12-11T06:45:23.488Z,71.21
2023-12-11T06:46:30.129Z,70.84
2023-12-11T06:47:33.284Z,70.84
2023-12-11T06:48:35.389Z,71.22
2023-12-11T06:49:38.834Z,71.90
2023-12-11T06:50:42.217Z,71.69
2023-12-11T06:51:45.291Z,71.71
2023-12-11T06:52:47.359Z,70.91
2023-12-11T06:53:51.657Z,71.24
2023-12-11T06:54:55.662Z,71.85
2023-12-11T06:55:58.699Z,71.50
2023-12-11T06:57:00.727Z,71.35
2023-12-11T06:58:05.247Z,70.69
2023-12-11T06:59:07.381Z,71.63
2023-12-11T07:00:11.731Z,71.53
2023-12-11T07:01:14.080Z,71.14
2023-12-11T07:02:17.359Z,70.91
2023-12-11T07:03:19.464Z,70.73
2023-12-11T07:04:22.554Z,71.36
2023-12-11T07:05:26.080Z,71.21
2023-12-11T07:06:28.927Z,70.94
2023-12-11T07:07:32.188Z,71.02
2023-12-11T07:08:34.762Z,71.33
2023-12-11T07:09:39.117Z,71.44
2023-12-11T07:10:41.111Z,71.53
2023-12-11T07:11:44.118Z,71.33
2023-12-11T07:12:47.313Z,71.15
2023-12-11T07:13:50.734Z,71.66
2023-12-11T07:14:52.929Z,71.08
2023-12-11T07:15:54.944Z,71.26
2023-12-11T07:16:57.882Z,71.85
2023-12-11T07:18:00.003Z,72.01
2023-12-11T07:19:03.533Z,71.04
2023-12-11T07:20:07.461Z,71.63
2023-12-11T07:21:10.860Z,71.55
2023-12-11T07:22:12.963Z,71.45
2023-12-11T07:23:15.014Z,71.44
2023-12-11T07:24:18.624Z,71.42
2023-12-11T07:25:22.034Z,71.40
2023-12-11T07:26:25.112Z,72.47
2023-12-11T07:27:27.271Z,72.36
2023-12-11T07:28:30.379Z,71.46
2023-12-11T07:29:32.996Z,72.46
2023-12-11T07:30:36.049Z,72.66
2023-12-11T07:31:38.039Z,71.82
2023-12-11T07:32:41.144Z,72.47
2023-12-11T07:33:43.251Z,71.33
2023-12-11T07:34:46.223Z,71.51
2023-12-11T07:35:48.205Z,71.90
2023-12-11T07:36:53.623Z,71.77
2023-12-11T07:37:55.558Z,72.54
2023-12-11T07:38:58.545Z,71.68
2023-12-11T07:40:00.558Z,71.52
2023-12-11T07:41:07.858Z,71.39
2023-12-11T07:42:10.082Z,71.25
2023-12-11T07:43:13.194Z,71.31
2023-12-11T07:44:16.483Z,71.38
2023-12-11T07:45:19.398Z,72.35
2023-12-11T07:46:23.003Z,72.43
2023-12-11T07:47:26.082Z,73.00
2023-12-11T07:48:29.769Z,72.51
2023-12-11T07:49:33.144Z,74.47
2023-12-11T07:50:35.171Z,81.18
2023-12-11T07:51:38.259Z,79.15
2023-12-11T07:52:40.215Z,74.52
2023-12-11T07:53:42.213Z,71.26
2023-12-11T07:54:45.668Z,70.33
2023-12-11T07:55:47.654Z,69.44
2023-12-11T07:56:51.977Z,69.27
2023-12-11T07:57:53.940Z,68.61
2023-12-11T07:58:56.948Z,68.78
2023-12-11T07:59:58.990Z,68.80
2023-12-11T08:01:02.037Z,69.77
2023-12-11T08:02:04.582Z,70.83
2023-12-11T08:03:07.689Z,71.12
2023-12-11T08:04:09.812Z,71.41
2023-12-11T08:05:12.989Z,71.25
2023-12-11T08:06:15.191Z,71.10
2023-12-11T08:07:19.608Z,71.53
2023-12-11T08:08:21.722Z,72.63
2023-12-11T08:09:24.771Z,72.65
2023-12-11T08:10:26.838Z,72.64
2023-12-11T08:11:30.021Z,72.37
2023-12-11T08:12:33.471Z,72.40
2023-12-11T08:13:36.412Z,72.04
2023-12-11T08:14:39.658Z,72.89
2023-12-11T08:15:42.866Z,72.78
2023-12-11T08:16:44.878Z,72.51
2023-12-11T08:17:48.029Z,72.41
2023-12-11T08:18:50.172Z,72.23
2023-12-11T08:19:53.952Z,73.11
2023-12-11T08:20:56.851Z,72.24
2023-12-11T08:21:59.901Z,73.15
2023-12-11T08:23:02.092Z,72.51
2023-12-11T08:24:05.496Z,72.55
2023-12-11T08:25:08.123Z,72.58
2023-12-11T08:26:11.269Z,72.87
2023-12-11T08:27:13.566Z,72.55
2023-12-11T08:28:17.955Z,72.97
2023-12-11T08:29:22.565Z,72.86
2023-12-11T08:30:25.497Z,72.98
2023-12-11T08:31:27.470Z,72.53
2023-12-11T08:32:29.497Z,72.66
2023-12-11T08:33:32.633Z,72.69
2023-12-11T08:34:35.396Z,72.53
2023-12-11T08:35:38.698Z,73.07
2023-12-11T08:36:40.664Z,73.06
2023-12-11T08:37:44.443Z,73.07
2023-12-11T08:38:46.347Z,72.29
2023-12-11T08:39:49.280Z,72.83
2023-12-11T08:40:51.311Z,72.91
2023-12-11T08:41:54.352Z,72.10
2023-12-11T08:42:56.366Z,72.82
2023-12-11T08:44:00.678Z,72.37
2023-12-11T08:45:02.673Z,72.05
2023-12-11T08:46:06.174Z,72.95
2023-12-11T08:47:08.250Z,72.38
2023-12-11T08:48:10.370Z,72.66
2023-12-11T08:49:13.607Z,72.92
2023-12-11T08:50:15.891Z,72.53
2023-12-11T08:51:19.549Z,73.37
2023-12-11T08:52:21.637Z,72.71
2023-12-11T08:53:25.027Z,72.39
2023-12-11T08:54:27.013Z,72.61
2023-12-11T08:55:30.492Z,73.03
2023-12-11T08:56:32.592Z,73.09
2023-12-11T08:57:35.570Z,73.31
2023-12-11T08:58:37.745Z,73.34
2023-12-11T08:59:42.133Z,72.71
2023-12-11T09:00:44.690Z,73.10
2023-12-11T09:01:47.871Z,73.73
2023-12-11T09:02:50.159Z,72.58
2023-12-11T09:03:53.348Z,73.31
2023-12-11T09:04:55.532Z,72.33
2023-12-11T09:05:58.641Z,73.10
2023-12-11T09:07:00.689Z,72.72
2023-12-11T09:08:02.726Z,72.90
2023-12-11T09:09:11.512Z,73.34
2023-12-11T09:10:13.558Z,73.66
2023-12-11T09:11:16.577Z,72.99
2023-12-11T09:12:28.165Z,73.60
2023-12-11T09:13:36.166Z,73.06
2023-12-11T09:14:38.223Z,72.69
2023-12-11T09:15:42.672Z,73.66
2023-12-11T09:16:44.996Z,73.00
2023-12-11T09:17:49.130Z,73.04
2023-12-11T09:18:51.343Z,73.24
2023-12-11T09:19:56.011Z,73.37
2023-12-11T09:20:58.491Z,73.54
2023-12-11T09:22:01.560Z,73.37
2023-12-11T09:23:03.546Z,72.65
2023-12-11T09:24:07.322Z,72.45
2023-12-11T09:25:10.125Z,72.88
2023-12-11T09:26:13.141Z,72.88
2023-12-11T09:27:15.123Z,73.26
2023-12-11T09:28:18.203Z,72.66
2023-12-11T09:29:20.211Z,73.36
2023-12-11T09:30:23.294Z,73.86
2023-12-11T09:31:26.648Z,73.40
2023-12-11T09:32:29.995Z,73.31
2023-12-11T09:33:32.755Z,73.37
2023-12-11T09:34:36.003Z,73.37
2023-12-11T09:35:38.382Z,73.82
2023-12-11T09:36:41.409Z,72.86
2023-12-11T09:37:44.128Z,73.61
2023-12-11T09:38:47.100Z,74.10
2023-12-11T09:39:50.088Z,72.95
2023-12-11T09:40:53.184Z,73.79
2023-12-11T09:41:55.863Z,72.83
2023-12-11T09:44:54.423Z,73.83
2023-12-11T09:45:57.696Z,73.04
2023-12-11T09:47:10.473Z,73.21
2023-12-11T09:48:15.104Z,74.46
2023-12-11T09:49:19.029Z,73.75
2023-12-11T09:50:23.694Z,73.79
2023-12-11T09:51:28.166Z,73.28
2023-12-11T09:52:30.583Z,73.02
2023-12-11T09:53:36.571Z,73.88
2023-12-11T09:54:38.747Z,73.74
2023-12-11T09:55:42.739Z,73.17
2023-12-11T09:56:45.181Z,73.44
2023-12-11T09:57:49.301Z,73.58
2023-12-11T09:58:52.084Z,73.14
2023-12-11T09:59:55.463Z,73.65
2023-12-11T10:01:02.315Z,73.31
2023-12-11T10:02:13.474Z,73.39
2023-12-11T10:03:16.997Z,73.41
2023-12-11T10:04:20.036Z,73.80
2023-12-11T10:05:26.086Z,74.45
2023-12-11T10:06:29.361Z,73.91
2023-12-11T10:07:31.792Z,73.99
2023-12-11T10:08:42.148Z,74.26
2023-12-11T10:09:44.157Z,73.94
2023-12-11T10:10:47.072Z,73.97
2023-12-11T10:11:58.982Z,74.04
2023-12-11T10:13:03.075Z,73.21
2023-12-11T10:14:12.087Z,73.95
2023-12-11T10:15:19.799Z,73.13
2023-12-11T10:16:30.383Z,73.94
2023-12-11T10:17:34.367Z,73.74
2023-12-11T10:18:50.264Z,72.75
2023-12-11T10:19:53.222Z,73.40
2023-12-11T10:20:58.729Z,73.44
2023-12-11T10:22:01.903Z,73.95
2023-12-11T10:23:16.175Z,73.25
2023-12-11T10:24:18.501Z,73.93
2023-12-11T10:25:25.373Z,73.86
2023-12-11T10:26:28.968Z,73.46
2023-12-11T10:27:31.163Z,73.20
2023-12-11T10:28:34.829Z,74.09
2023-12-11T10:29:37.489Z,72.52
2023-12-11T10:30:57.109Z,73.19
2023-12-11T10:32:02.904Z,74.20
2023-12-11T10:33:07.474Z,73.55
2023-12-11T10:34:09.941Z,73.38
2023-12-11T10:35:24.837Z,74.13
2023-12-11T10:36:26.985Z,73.19
2023-12-11T10:37:32.954Z,74.07
2023-12-11T10:38:35.308Z,73.31
2023-12-11T10:39:38.289Z,74.31
2023-12-11T10:40:41.494Z,73.69
2023-12-11T10:41:46.737Z,74.19
2023-12-11T10:42:57.387Z,74.32
2023-12-11T10:44:12.027Z,73.39
2023-12-11T10:45:19.240Z,73.40
2023-12-11T10:46:22.583Z,73.99
2023-12-11T10:47:24.999Z,74.05
2023-12-11T10:48:29.484Z,72.86
2023-12-11T10:49:31.849Z,73.20
2023-12-11T10:50:35.875Z,73.42
2023-12-11T10:51:38.365Z,73.50
2023-12-11T10:52:43.802Z,73.39
2023-12-11T10:53:45.970Z,73.25
2023-12-11T10:54:48.917Z,74.27
2023-12-11T10:55:52.762Z,74.00
2023-12-11T10:56:56.818Z,74.53
2023-12-11T10:57:59.320Z,73.58
2023-12-11T10:59:02.905Z,73.64
2023-12-11T11:00:06.267Z,74.60
2023-12-11T11:01:13.448Z,73.86
2023-12-11T11:02:18.662Z,73.76
2023-12-11T11:03:25.540Z,73.28
2023-12-11T11:04:33.510Z,74.02
2023-12-11T11:05:37.473Z,73.04
2023-12-11T11:06:48.025Z,73.18
2023-12-11T11:07:59.064Z,73.99
2023-12-11T11:09:05.478Z,73.88
2023-12-11T11:10:13.046Z,73.71
2023-12-11T11:11:25.915Z,73.54
2023-12-11T11:12:39.851Z,74.00
2023-12-11T11:14:06.977Z,73.19
2023-12-11T11:15:11.117Z,73.43
2023-12-11T11:16:13.095Z,73.43
2023-12-11T11:17:17.727Z,73.59
2023-12-11T11:18:19.831Z,73.51
2023-12-11T11:19:22.957Z,74.03
2023-12-11T11:20:26.633Z,74.30
2023-12-11T11:21:29.506Z,73.50
2023-12-11T11:22:36.361Z,74.21
2023-12-11T11:23:47.522Z,73.97
2023-12-11T11:24:49.658Z,73.85
2023-12-11T11:25:54.842Z,73.74
2023-12-11T11:27:02.237Z,73.22
2023-12-11T11:28:04.974Z,73.58
2023-12-11T11:29:07.990Z,72.76
2023-12-11T11:30:11.311Z,72.55
2023-12-11T11:31:23.181Z,72.77
2023-12-11T11:32:53.927Z,73.66
2023-12-11T11:33:58.275Z,73.32
2023-12-11T11:35:01.530Z,73.77
2023-12-11T11:36:05.434Z,73.99
2023-12-11T11:37:07.766Z,73.23
2023-12-11T11:38:10.617Z,73.20
2023-12-11T11:39:13.462Z,72.81
2023-12-11T11:40:15.971Z,72.61
2023-12-11T11:41:26.045Z,73.42
2023-12-11T11:42:30.340Z,73.16
2023-12-11T11:43:32.254Z,73.63
2023-12-11T11:44:35.324Z,72.49
2023-12-11T11:45:37.380Z,72.67
2023-12-11T11:46:50.174Z,73.21
2023-12-11T11:47:53.774Z,73.33
2023-12-11T11:48:55.805Z,73.47
2023-12-11T11:50:06.039Z,72.44
2023-12-11T11:51:09.379Z,72.62
2023-12-11T11:52:13.728Z,73.15
2023-12-11T11:53:18.426Z,72.87
2023-12-11T11:54:23.932Z,72.50
2023-12-11T11:55:28.612Z,73.10
2023-12-11T11:56:30.889Z,72.73
2023-12-11T11:57:34.464Z,73.37
2023-12-11T11:58:46.370Z,72.85
2023-12-11T11:59:49.241Z,72.14
2023-12-11T12:00:51.250Z,72.20
2023-12-11T12:01:55.537Z,72.42
2023-12-11T12:02:57.708Z,73.04
2023-12-11T12:03:59.849Z,72.62
2023-12-11T12:05:10.969Z,72.02
2023-12-11T12:06:18.474Z,71.77
2023-12-11T12:07:21.787Z,71.75
2023-12-11T12:08:23.779Z,72.59
2023-12-11T12:09:27.586Z,72.54
2023-12-11T12:10:30.045Z,72.65
2023-12-11T12:11:35.026Z,72.39
2023-12-11T12:12:37.938Z,71.79
2023-12-11T12:13:39.985Z,71.73
2023-12-11T12:14:42.215Z,71.62
2023-12-11T12:15:46.094Z,71.52
2023-12-11T12:16:48.392Z,72.33
2023-12-11T12:17:52.024Z,71.70
2023-12-11T12:18:54.175Z,71.33
2023-12-11T12:19:58.820Z,71.24
2023-12-11T12:21:04.087Z,72.08
2023-12-11T12:22:10.332Z,71.80
2023-12-11T12:23:12.313Z,71.16
2023-12-11T12:24:14.289Z,71.01
2023-12-11T12:25:17.909Z,71.35
2023-12-11T12:26:20.028Z,70.86
2023-12-11T12:27:26.847Z,71.20
2023-12-11T12:28:28.896Z,70.53
2023-12-11T12:29:33.162Z,70.45
2023-12-11T12:30:36.119Z,71.10
2023-12-11T12:31:39.725Z,70.46
2023-12-11T12:32:41.780Z,70.73
2023-12-11T12:33:45.109Z,70.16
2023-12-11T12:34:50.134Z,70.45
2023-12-11T12:35:52.429Z,71.25
2023-12-11T12:36:57.348Z,70.51
2023-12-11T12:38:01.729Z,71.13
2023-12-11T12:39:05.310Z,70.34
2023-12-11T12:40:08.802Z,70.66
2023-12-11T12:41:13.258Z,71.03
2023-12-11T12:42:15.244Z,70.25
2023-12-11T12:43:18.430Z,70.20
2023-12-11T12:44:20.654Z,69.93
2023-12-11T12:45:35.588Z,71.01
2023-12-11T12:46:40.099Z,70.40
2023-12-11T12:47:49.540Z,70.33
2023-12-11T12:48:51.656Z,69.77
2023-12-11T12:49:54.627Z,69.54
2023-12-11T12:51:06.271Z,70.53
2023-12-11T12:52:09.339Z,70.58
2023-12-11T12:53:14.663Z,69.89
2023-12-11T12:54:18.413Z,70.64
2023-12-11T12:55:30.242Z,69.54
2023-12-11T12:56:33.256Z,69.73
2023-12-11T12:57:37.950Z,69.62
2023-12-11T12:58:40.951Z,70.57
2023-12-11T12:59:42.957Z,69.86
2023-12-11T13:00:46.187Z,69.85
2023-12-11T13:01:49.833Z,69.48
2023-12-11T13:02:53.023Z,69.66
2023-12-11T13:04:00.372Z,69.13
2023-12-11T13:05:03.577Z,70.10
2023-12-11T13:06:06.462Z,69.58
2023-12-11T13:07:12.579Z,69.93
2023-12-11T13:08:16.377Z,69.72
2023-12-11T13:09:30.205Z,68.65
2023-12-11T13:10:32.203Z,69.21
2023-12-11T13:11:44.881Z,68.60
2023-12-11T13:12:46.800Z,68.74
2023-12-11T13:13:57.463Z,69.23
2023-12-11T13:15:01.672Z,68.50
2023-12-11T13:16:05.606Z,69.57
2023-12-11T13:17:08.320Z,68.41
2023-12-11T13:18:15.497Z,68.81
2023-12-11T13:19:17.608Z,69.22
2023-12-11T13:20:22.338Z,68.92
2023-12-11T13:21:25.306Z,68.30
2023-12-11T13:22:28.187Z,68.04
2023-12-11T13:23:31.452Z,68.82
2023-12-11T13:24:34.423Z,68.41
2023-12-11T13:25:36.325Z,68.13
2023-12-11T13:26:39.366Z,67.87
2023-12-11T13:27:41.338Z,67.99
2023-12-11T13:28:44.301Z,69.08
2023-12-11T13:29:46.573Z,68.85
2023-12-11T13:30:49.550Z,68.40
2023-12-11T13:31:53.511Z,68.32
2023-12-11T13:32:56.401Z,68.55
2023-12-11T13:33:58.486Z,67.93
2023-12-11T13:35:01.483Z,67.99
2023-12-11T13:36:04.317Z,68.80
2023-12-11T13:37:07.391Z,68.33
2023-12-11T13:38:09.220Z,68.77
2023-12-11T13:39:13.446Z,68.65
2023-12-11T13:40:17.502Z,68.16
2023-12-11T13:41:20.435Z,68.91